sensor_id;sensor_type;location;lat;lon;timestamp;temperature;humidity
8709;DHT22;4391;48.678;9.280;2022-12-29T00:00:13;7.30;46.60
8709;DHT22;4391;48.678;9.280;2022-12-29T00:02:40;7.40;1.00
8709;DHT22;4391;48.678;9.280;2022-12-29T00:05:08;7.60;99.90
8709;DHT22;4391;48.678;9.280;2022-12-29T00:07:36;7.70;1.00
8709;DHT22;4391;48.678;9.280;2022-12-29T00:10:03;7.80;1.00
8709;DHT22;4391;48.678;9.280;2022-12-29T00:12:30;7.90;99.90
8709;DHT22;4391;48.678;9.280;2022-12-29T00:15:11;8.00;1.00
8709;DHT22;4391;48.678;9.280;2022-12-29T00:17:52;8.00;45.80
8709;DHT22;4391;48.678;9.280;2022-12-29T00:20:18;8.20;93.40
8709;DHT22;4391;48.678;9.280;2022-12-29T00:23:04;8.20;48.20
8709;DHT22;4391;48.678;9.280;2022-12-29T00:25:48;8.40;99.90
8709;DHT22;4391;48.678;9.280;2022-12-29T00:28:32;8.40;1.00
8709;DHT22;4391;48.678;9.280;2022-12-29T00:31:17;8.50;99.90
8709;DHT22;4391;48.678;9.280;2022-12-29T00:34:01;8.50;2.10
8709;DHT22;4391;48.678;9.280;2022-12-29T00:36:45;8.60;1.00
8709;DHT22;4391;48.678;9.280;2022-12-29T00:39:16;8.60;1.00
8709;DHT22;4391;48.678;9.280;2022-12-29T00:42:03;8.70;99.90
8709;DHT22;4391;48.678;9.280;2022-12-29T00:44:47;8.70;99.90
8709;DHT22;4391;48.678;9.280;2022-12-29T00:47:14;8.90;99.90
8709;DHT22;4391;48.678;9.280;2022-12-29T00:49:41;8.90;1.00
8709;DHT22;4391;48.678;9.280;2022-12-29T00:52:08;9.00;1.00
8709;DHT22;4391;48.678;9.280;2022-12-29T00:54:40;9.10;1.00
8709;DHT22;4391;48.678;9.280;2022-12-29T00:57:10;9.10;1.00
8709;DHT22;4391;48.678;9.280;2022-12-29T00:59:38;9.10;1.00
8709;DHT22;4391;48.678;9.280;2022-12-29T01:02:06;9.10;99.90
8709;DHT22;4391;48.678;9.280;2022-12-29T01:04:33;9.10;1.00
8709;DHT22;4391;48.678;9.280;2022-12-29T01:07:00;9.10;99.90
8709;DHT22;4391;48.678;9.280;2022-12-29T01:09:28;9.20;99.90
8709;DHT22;4391;48.678;9.280;2022-12-29T01:12:14;9.10;99.90
8709;DHT22;4391;48.678;9.280;2022-12-29T01:14:40;9.00;1.00
8709;DHT22;4391;48.678;9.280;2022-12-29T01:17:07;9.00;1.00
8709;DHT22;4391;48.678;9.280;2022-12-29T01:19:34;9.00;1.00
8709;DHT22;4391;48.678;9.280;2022-12-29T01:22:01;9.00;1.00
8709;DHT22;4391;48.678;9.280;2022-12-29T01:24:28;9.00;1.00
8709;DHT22;4391;48.678;9.280;2022-12-29T01:26:55;9.00;1.00
8709;DHT22;4391;48.678;9.280;2022-12-29T01:29:23;9.00;1.00
8709;DHT22;4391;48.678;9.280;2022-12-29T01:31:50;9.00;1.00
8709;DHT22;4391;48.678;9.280;2022-12-29T01:34:16;9.00;1.00
8709;DHT22;4391;48.678;9.280;2022-12-29T01:36:43;9.00;1.00
8709;DHT22;4391;48.678;9.280;2022-12-29T01:39:10;9.10;1.00
8709;DHT22;4391;48.678;9.280;2022-12-29T01:41:37;9.10;99.90
8709;DHT22;4391;48.678;9.280;2022-12-29T01:47:07;9.20;99.90
8709;DHT22;4391;48.678;9.280;2022-12-29T01:49:34;9.20;99.90
8709;DHT22;4391;48.678;9.280;2022-12-29T01:52:04;9.20;99.90
8709;DHT22;4391;48.678;9.280;2022-12-29T01:54:35;9.30;99.90
8709;DHT22;4391;48.678;9.280;2022-12-29T01:57:05;9.30;99.90
8709;DHT22;4391;48.678;9.280;2022-12-29T01:59:38;9.30;99.90
8709;DHT22;4391;48.678;9.280;2022-12-29T02:02:09;9.30;99.90
8709;DHT22;4391;48.678;9.280;2022-12-29T02:04:39;9.30;99.90
8709;DHT22;4391;48.678;9.280;2022-12-29T02:07:13;9.40;99.90
8709;DHT22;4391;48.678;9.280;2022-12-29T02:09:42;9.30;1.00
8709;DHT22;4391;48.678;9.280;2022-12-29T02:12:10;9.40;99.90
8709;DHT22;4391;48.678;9.280;2022-12-29T02:14:37;9.50;99.90
8709;DHT22;4391;48.678;9.280;2022-12-29T02:17:11;9.50;99.90
8709;DHT22;4391;48.678;9.280;2022-12-29T02:26:30;9.70;99.90
8709;DHT22;4391;48.678;9.280;2022-12-29T02:29:34;9.80;99.90
8709;DHT22;4391;48.678;9.280;2022-12-29T02:32:13;10.00;79.90
8709;DHT22;4391;48.678;9.280;2022-12-29T02:34:47;10.10;58.70
8709;DHT22;4391;48.678;9.280;2022-12-29T02:37:21;10.10;29.20
8709;DHT22;4391;48.678;9.280;2022-12-29T02:39:52;10.20;12.30
8709;DHT22;4391;48.678;9.280;2022-12-29T02:42:27;10.20;17.10
8709;DHT22;4391;48.678;9.280;2022-12-29T02:45:04;10.30;3.80
8709;DHT22;4391;48.678;9.280;2022-12-29T02:47:37;10.20;1.00
8709;DHT22;4391;48.678;9.280;2022-12-29T02:50:09;10.30;1.00
8709;DHT22;4391;48.678;9.280;2022-12-29T02:52:42;10.30;1.00
8709;DHT22;4391;48.678;9.280;2022-12-29T02:55:13;10.30;1.00
8709;DHT22;4391;48.678;9.280;2022-12-29T02:57:39;10.30;1.00
8709;DHT22;4391;48.678;9.280;2022-12-29T03:00:08;10.40;1.00
8709;DHT22;4391;48.678;9.280;2022-12-29T03:02:54;10.50;1.00
8709;DHT22;4391;48.678;9.280;2022-12-29T03:08:23;10.50;1.00
8709;DHT22;4391;48.678;9.280;2022-12-29T03:10:59;10.50;1.00
8709;DHT22;4391;48.678;9.280;2022-12-29T03:13:29;10.50;1.00
8709;DHT22;4391;48.678;9.280;2022-12-29T03:16:21;10.50;1.00
8709;DHT22;4391;48.678;9.280;2022-12-29T03:18:56;10.40;1.00
8709;DHT22;4391;48.678;9.280;2022-12-29T03:21:31;10.50;1.00
8709;DHT22;4391;48.678;9.280;2022-12-29T03:24:18;10.50;1.00
8709;DHT22;4391;48.678;9.280;2022-12-29T03:26:48;10.60;1.00
8709;DHT22;4391;48.678;9.280;2022-12-29T03:29:17;10.60;1.00
8709;DHT22;4391;48.678;9.280;2022-12-29T03:31:45;10.50;1.00
8709;DHT22;4391;48.678;9.280;2022-12-29T03:34:14;10.60;1.00
8709;DHT22;4391;48.678;9.280;2022-12-29T03:36:49;10.60;1.00
8709;DHT22;4391;48.678;9.280;2022-12-29T03:39:20;10.60;1.00
8709;DHT22;4391;48.678;9.280;2022-12-29T03:41:51;10.60;1.00
8709;DHT22;4391;48.678;9.280;2022-12-29T03:44:21;10.60;1.00
8709;DHT22;4391;48.678;9.280;2022-12-29T03:46:57;10.50;1.00
8709;DHT22;4391;48.678;9.280;2022-12-29T03:49:25;10.50;1.00
8709;DHT22;4391;48.678;9.280;2022-12-29T03:51:52;10.40;1.00
8709;DHT22;4391;48.678;9.280;2022-12-29T03:54:19;10.40;1.00
8709;DHT22;4391;48.678;9.280;2022-12-29T03:56:46;10.40;1.00
8709;DHT22;4391;48.678;9.280;2022-12-29T03:59:12;10.40;1.00
8709;DHT22;4391;48.678;9.280;2022-12-29T04:01:39;10.30;1.00
8709;DHT22;4391;48.678;9.280;2022-12-29T04:04:06;10.30;9.10
8709;DHT22;4391;48.678;9.280;2022-12-29T04:06:34;10.20;76.70
8709;DHT22;4391;48.678;9.280;2022-12-29T04:09:01;10.10;99.90
8709;DHT22;4391;48.678;9.280;2022-12-29T04:11:28;10.10;49.50
8709;DHT22;4391;48.678;9.280;2022-12-29T04:13:55;10.00;99.90
8709;DHT22;4391;48.678;9.280;2022-12-29T04:16:22;9.90;99.90
8709;DHT22;4391;48.678;9.280;2022-12-29T04:18:48;9.80;99.90
8709;DHT22;4391;48.678;9.280;2022-12-29T04:21:15;9.80;99.90
8709;DHT22;4391;48.678;9.280;2022-12-29T04:23:44;9.80;99.90
8709;DHT22;4391;48.678;9.280;2022-12-29T04:26:11;9.80;99.90
8709;DHT22;4391;48.678;9.280;2022-12-29T04:28:38;9.70;99.90
8709;DHT22;4391;48.678;9.280;2022-12-29T04:31:04;9.70;99.90
8709;DHT22;4391;48.678;9.280;2022-12-29T04:33:31;9.60;99.90
8709;DHT22;4391;48.678;9.280;2022-12-29T04:35:58;9.50;99.90
8709;DHT22;4391;48.678;9.280;2022-12-29T04:38:25;9.40;1.00
8709;DHT22;4391;48.678;9.280;2022-12-29T04:40:53;9.30;1.00
8709;DHT22;4391;48.678;9.280;2022-12-29T04:43:20;9.30;1.00
8709;DHT22;4391;48.678;9.280;2022-12-29T04:45:47;9.30;99.90
8709;DHT22;4391;48.678;9.280;2022-12-29T04:48:15;9.20;84.10
8709;DHT22;4391;48.678;9.280;2022-12-29T04:50:42;9.10;99.90
8709;DHT22;4391;48.678;9.280;2022-12-29T04:53:09;9.00;99.90
8709;DHT22;4391;48.678;9.280;2022-12-29T04:55:36;8.90;99.90
8709;DHT22;4391;48.678;9.280;2022-12-29T04:58:04;8.80;99.90
8709;DHT22;4391;48.678;9.280;2022-12-29T05:00:31;8.80;99.90
8709;DHT22;4391;48.678;9.280;2022-12-29T05:02:58;8.70;99.90
8709;DHT22;4391;48.678;9.280;2022-12-29T05:05:25;8.70;1.00
8709;DHT22;4391;48.678;9.280;2022-12-29T05:07:52;8.70;1.00
8709;DHT22;4391;48.678;9.280;2022-12-29T05:10:19;8.70;1.00
8709;DHT22;4391;48.678;9.280;2022-12-29T05:12:46;8.70;99.90
8709;DHT22;4391;48.678;9.280;2022-12-29T05:15:14;8.70;1.00
8709;DHT22;4391;48.678;9.280;2022-12-29T05:17:41;8.70;99.90
8709;DHT22;4391;48.678;9.280;2022-12-29T05:20:08;8.70;99.90
8709;DHT22;4391;48.678;9.280;2022-12-29T05:22:36;8.70;1.00
8709;DHT22;4391;48.678;9.280;2022-12-29T05:25:03;8.70;1.00
8709;DHT22;4391;48.678;9.280;2022-12-29T05:27:30;8.80;1.00
8709;DHT22;4391;48.678;9.280;2022-12-29T05:29:57;8.70;99.90
8709;DHT22;4391;48.678;9.280;2022-12-29T05:32:25;8.80;99.90
8709;DHT22;4391;48.678;9.280;2022-12-29T05:34:52;8.80;99.90
8709;DHT22;4391;48.678;9.280;2022-12-29T05:37:19;8.60;1.00
8709;DHT22;4391;48.678;9.280;2022-12-29T05:39:46;8.60;1.00
8709;DHT22;4391;48.678;9.280;2022-12-29T05:42:12;8.60;99.90
8709;DHT22;4391;48.678;9.280;2022-12-29T05:44:39;8.50;99.90
8709;DHT22;4391;48.678;9.280;2022-12-29T05:47:06;8.50;1.00
8709;DHT22;4391;48.678;9.280;2022-12-29T05:49:34;8.40;1.00
8709;DHT22;4391;48.678;9.280;2022-12-29T05:52:01;8.70;99.90
8709;DHT22;4391;48.678;9.280;2022-12-29T05:54:28;8.70;1.00
8709;DHT22;4391;48.678;9.280;2022-12-29T05:56:55;8.60;1.00
8709;DHT22;4391;48.678;9.280;2022-12-29T05:59:22;8.60;1.00
8709;DHT22;4391;48.678;9.280;2022-12-29T06:01:49;8.60;42.60
8709;DHT22;4391;48.678;9.280;2022-12-29T06:04:16;8.60;99.90
8709;DHT22;4391;48.678;9.280;2022-12-29T06:06:44;8.50;98.40
8709;DHT22;4391;48.678;9.280;2022-12-29T06:09:11;8.70;1.00
8709;DHT22;4391;48.678;9.280;2022-12-29T06:11:38;8.80;1.00
8709;DHT22;4391;48.678;9.280;2022-12-29T06:14:04;8.80;1.00
8709;DHT22;4391;48.678;9.280;2022-12-29T06:16:31;9.00;99.90
8709;DHT22;4391;48.678;9.280;2022-12-29T06:18:58;9.10;99.90
8709;DHT22;4391;48.678;9.280;2022-12-29T06:21:25;9.10;99.90
8709;DHT22;4391;48.678;9.280;2022-12-29T06:23:53;9.20;99.90
8709;DHT22;4391;48.678;9.280;2022-12-29T06:26:20;9.30;99.90
8709;DHT22;4391;48.678;9.280;2022-12-29T06:28:47;9.40;99.90
8709;DHT22;4391;48.678;9.280;2022-12-29T06:31:14;9.50;1.00
8709;DHT22;4391;48.678;9.280;2022-12-29T06:33:40;9.60;1.00
8709;DHT22;4391;48.678;9.280;2022-12-29T06:36:07;9.60;1.00
8709;DHT22;4391;48.678;9.280;2022-12-29T06:38:34;9.60;1.00
8709;DHT22;4391;48.678;9.280;2022-12-29T06:41:03;9.60;1.00
8709;DHT22;4391;48.678;9.280;2022-12-29T06:43:30;9.60;37.80
8709;DHT22;4391;48.678;9.280;2022-12-29T06:45:57;9.70;1.00
8709;DHT22;4391;48.678;9.280;2022-12-29T06:48:24;9.70;1.00
8709;DHT22;4391;48.678;9.280;2022-12-29T06:50:51;9.80;1.00
8709;DHT22;4391;48.678;9.280;2022-12-29T06:53:18;10.00;1.00
8709;DHT22;4391;48.678;9.280;2022-12-29T06:55:44;10.00;1.00
8709;DHT22;4391;48.678;9.280;2022-12-29T06:58:13;10.00;1.00
8709;DHT22;4391;48.678;9.280;2022-12-29T07:00:39;10.20;99.90
8709;DHT22;4391;48.678;9.280;2022-12-29T07:03:06;10.20;99.90
8709;DHT22;4391;48.678;9.280;2022-12-29T07:05:33;10.20;99.90
8709;DHT22;4391;48.678;9.280;2022-12-29T07:08:00;10.20;99.90
8709;DHT22;4391;48.678;9.280;2022-12-29T07:10:27;10.20;99.90
8709;DHT22;4391;48.678;9.280;2022-12-29T07:12:54;10.20;99.90
8709;DHT22;4391;48.678;9.280;2022-12-29T07:15:22;10.20;99.90
8709;DHT22;4391;48.678;9.280;2022-12-29T07:17:49;10.20;99.90
8709;DHT22;4391;48.678;9.280;2022-12-29T07:20:16;10.30;99.90
8709;DHT22;4391;48.678;9.280;2022-12-29T07:22:43;10.30;99.90
8709;DHT22;4391;48.678;9.280;2022-12-29T07:25:09;10.40;99.90
8709;DHT22;4391;48.678;9.280;2022-12-29T07:27:36;10.40;99.90
8709;DHT22;4391;48.678;9.280;2022-12-29T07:30:04;10.40;99.90
8709;DHT22;4391;48.678;9.280;2022-12-29T07:32:34;10.50;99.90
8709;DHT22;4391;48.678;9.280;2022-12-29T07:35:00;10.40;99.90
8709;DHT22;4391;48.678;9.280;2022-12-29T07:37:27;10.40;99.90
8709;DHT22;4391;48.678;9.280;2022-12-29T07:39:54;10.40;99.90
8709;DHT22;4391;48.678;9.280;2022-12-29T07:42:21;10.50;99.90
8709;DHT22;4391;48.678;9.280;2022-12-29T07:44:48;10.50;99.90
8709;DHT22;4391;48.678;9.280;2022-12-29T07:47:15;10.50;99.90
8709;DHT22;4391;48.678;9.280;2022-12-29T07:49:43;10.50;99.90
8709;DHT22;4391;48.678;9.280;2022-12-29T07:52:10;10.60;99.90
8709;DHT22;4391;48.678;9.280;2022-12-29T07:54:37;10.60;99.90
8709;DHT22;4391;48.678;9.280;2022-12-29T07:57:04;10.60;99.90
8709;DHT22;4391;48.678;9.280;2022-12-29T07:59:31;10.60;1.00
8709;DHT22;4391;48.678;9.280;2022-12-29T08:01:58;10.60;99.90
8709;DHT22;4391;48.678;9.280;2022-12-29T08:04:25;10.70;99.90
8709;DHT22;4391;48.678;9.280;2022-12-29T08:06:53;10.70;99.90
8709;DHT22;4391;48.678;9.280;2022-12-29T08:09:20;10.80;99.90
8709;DHT22;4391;48.678;9.280;2022-12-29T08:11:46;10.80;99.90
8709;DHT22;4391;48.678;9.280;2022-12-29T08:14:13;10.90;99.90
8709;DHT22;4391;48.678;9.280;2022-12-29T08:16:40;10.90;99.90
8709;DHT22;4391;48.678;9.280;2022-12-29T08:19:09;11.00;99.90
8709;DHT22;4391;48.678;9.280;2022-12-29T08:21:36;11.00;99.90
8709;DHT22;4391;48.678;9.280;2022-12-29T08:24:05;11.10;99.90
8709;DHT22;4391;48.678;9.280;2022-12-29T08:26:31;11.20;99.90
8709;DHT22;4391;48.678;9.280;2022-12-29T08:28:58;11.20;99.90
8709;DHT22;4391;48.678;9.280;2022-12-29T08:31:26;11.20;99.90
8709;DHT22;4391;48.678;9.280;2022-12-29T08:33:53;11.30;99.90
8709;DHT22;4391;48.678;9.280;2022-12-29T08:36:19;11.30;99.90
8709;DHT22;4391;48.678;9.280;2022-12-29T08:38:46;11.40;99.90
8709;DHT22;4391;48.678;9.280;2022-12-29T08:41:14;11.40;99.90
8709;DHT22;4391;48.678;9.280;2022-12-29T08:43:45;11.40;99.90
8709;DHT22;4391;48.678;9.280;2022-12-29T08:46:11;11.40;99.90
8709;DHT22;4391;48.678;9.280;2022-12-29T08:48:38;11.50;99.90
8709;DHT22;4391;48.678;9.280;2022-12-29T08:51:05;11.60;1.00
8709;DHT22;4391;48.678;9.280;2022-12-29T08:53:33;11.60;1.00
8709;DHT22;4391;48.678;9.280;2022-12-29T08:56:00;11.70;1.00
8709;DHT22;4391;48.678;9.280;2022-12-29T08:58:28;11.70;1.00
8709;DHT22;4391;48.678;9.280;2022-12-29T09:00:56;11.70;1.00
8709;DHT22;4391;48.678;9.280;2022-12-29T09:03:24;11.70;1.00
8709;DHT22;4391;48.678;9.280;2022-12-29T09:05:53;11.70;1.00
8709;DHT22;4391;48.678;9.280;2022-12-29T09:08:20;11.60;1.00
8709;DHT22;4391;48.678;9.280;2022-12-29T09:10:47;11.60;1.00
8709;DHT22;4391;48.678;9.280;2022-12-29T09:13:15;11.50;1.00
8709;DHT22;4391;48.678;9.280;2022-12-29T09:15:43;11.50;1.00
8709;DHT22;4391;48.678;9.280;2022-12-29T09:18:11;11.60;1.00
8709;DHT22;4391;48.678;9.280;2022-12-29T09:20:38;11.50;1.00
8709;DHT22;4391;48.678;9.280;2022-12-29T09:23:05;11.60;1.00
8709;DHT22;4391;48.678;9.280;2022-12-29T09:25:32;11.50;1.00
8709;DHT22;4391;48.678;9.280;2022-12-29T09:27:59;11.50;11.90
8709;DHT22;4391;48.678;9.280;2022-12-29T09:30:29;11.50;1.00
8709;DHT22;4391;48.678;9.280;2022-12-29T09:32:57;11.50;4.80
8709;DHT22;4391;48.678;9.280;2022-12-29T09:35:24;11.60;1.00
8709;DHT22;4391;48.678;9.280;2022-12-29T09:37:51;11.70;1.00
8709;DHT22;4391;48.678;9.280;2022-12-29T09:40:24;11.70;1.00
8709;DHT22;4391;48.678;9.280;2022-12-29T09:45:43;11.90;1.00
8709;DHT22;4391;48.678;9.280;2022-12-29T09:48:16;12.10;1.00
8709;DHT22;4391;48.678;9.280;2022-12-29T09:50:47;12.00;1.00
8709;DHT22;4391;48.678;9.280;2022-12-29T09:53:19;12.10;1.00
8709;DHT22;4391;48.678;9.280;2022-12-29T09:55:50;12.10;1.00
8709;DHT22;4391;48.678;9.280;2022-12-29T09:58:22;12.20;1.00
8709;DHT22;4391;48.678;9.280;2022-12-29T10:00:56;12.20;1.00
8709;DHT22;4391;48.678;9.280;2022-12-29T10:03:36;12.30;1.00
8709;DHT22;4391;48.678;9.280;2022-12-29T10:06:11;12.30;1.00
8709;DHT22;4391;48.678;9.280;2022-12-29T10:08:42;12.30;19.00
8709;DHT22;4391;48.678;9.280;2022-12-29T10:11:19;12.30;68.00
8709;DHT22;4391;48.678;9.280;2022-12-29T10:14:07;12.20;59.30
8709;DHT22;4391;48.678;9.280;2022-12-29T10:16:43;12.10;99.90
8709;DHT22;4391;48.678;9.280;2022-12-29T10:22:18;12.00;99.90
8709;DHT22;4391;48.678;9.280;2022-12-29T10:24:49;12.00;99.90
8709;DHT22;4391;48.678;9.280;2022-12-29T10:27:18;11.90;99.90
8709;DHT22;4391;48.678;9.280;2022-12-29T10:29:48;11.90;99.90
8709;DHT22;4391;48.678;9.280;2022-12-29T10:32:24;12.00;99.90
8709;DHT22;4391;48.678;9.280;2022-12-29T10:34:57;12.10;99.90
8709;DHT22;4391;48.678;9.280;2022-12-29T10:37:31;12.10;99.90
8709;DHT22;4391;48.678;9.280;2022-12-29T10:40:03;12.20;99.90
8709;DHT22;4391;48.678;9.280;2022-12-29T10:42:42;12.30;99.90
8709;DHT22;4391;48.678;9.280;2022-12-29T10:45:13;12.40;99.90
8709;DHT22;4391;48.678;9.280;2022-12-29T10:47:49;12.30;99.90
8709;DHT22;4391;48.678;9.280;2022-12-29T10:50:19;12.30;99.90
8709;DHT22;4391;48.678;9.280;2022-12-29T10:52:47;12.20;99.90
8709;DHT22;4391;48.678;9.280;2022-12-29T10:55:19;12.20;99.90
8709;DHT22;4391;48.678;9.280;2022-12-29T10:57:48;12.10;99.90
8709;DHT22;4391;48.678;9.280;2022-12-29T11:00:17;12.10;99.90
8709;DHT22;4391;48.678;9.280;2022-12-29T11:03:06;12.10;99.90
8709;DHT22;4391;48.678;9.280;2022-12-29T11:05:38;12.20;99.90
8709;DHT22;4391;48.678;9.280;2022-12-29T11:08:10;12.10;99.90
8709;DHT22;4391;48.678;9.280;2022-12-29T11:10:39;12.20;99.90
8709;DHT22;4391;48.678;9.280;2022-12-29T11:15:39;12.20;99.90
8709;DHT22;4391;48.678;9.280;2022-12-29T11:18:18;12.30;99.90
8709;DHT22;4391;48.678;9.280;2022-12-29T11:20:46;12.40;99.90
8709;DHT22;4391;48.678;9.280;2022-12-29T11:23:24;12.50;99.90
8709;DHT22;4391;48.678;9.280;2022-12-29T11:26:17;12.50;99.90
8709;DHT22;4391;48.678;9.280;2022-12-29T11:28:45;12.40;99.90
8709;DHT22;4391;48.678;9.280;2022-12-29T11:31:16;12.40;99.90
8709;DHT22;4391;48.678;9.280;2022-12-29T11:33:44;12.30;99.90
8709;DHT22;4391;48.678;9.280;2022-12-29T11:36:15;12.30;99.90
8709;DHT22;4391;48.678;9.280;2022-12-29T11:38:46;12.30;99.90
8709;DHT22;4391;48.678;9.280;2022-12-29T11:41:21;12.30;1.00
8709;DHT22;4391;48.678;9.280;2022-12-29T11:43:49;12.20;1.00
8709;DHT22;4391;48.678;9.280;2022-12-29T11:46:19;12.20;30.90
8709;DHT22;4391;48.678;9.280;2022-12-29T11:48:47;12.10;1.00
8709;DHT22;4391;48.678;9.280;2022-12-29T11:51:22;12.10;99.90
8709;DHT22;4391;48.678;9.280;2022-12-29T11:53:51;12.20;99.90
8709;DHT22;4391;48.678;9.280;2022-12-29T11:56:22;12.50;99.90
8709;DHT22;4391;48.678;9.280;2022-12-29T11:58:57;12.60;99.90
8709;DHT22;4391;48.678;9.280;2022-12-29T12:01:32;12.50;99.90
8709;DHT22;4391;48.678;9.280;2022-12-29T12:04:03;12.30;1.00
8709;DHT22;4391;48.678;9.280;2022-12-29T12:06:36;12.10;1.00
8709;DHT22;4391;48.678;9.280;2022-12-29T12:09:10;12.10;99.90
8709;DHT22;4391;48.678;9.280;2022-12-29T12:11:42;12.00;99.90
8709;DHT22;4391;48.678;9.280;2022-12-29T12:14:15;11.90;99.90
8709;DHT22;4391;48.678;9.280;2022-12-29T12:16:48;11.80;99.90
8709;DHT22;4391;48.678;9.280;2022-12-29T12:19:26;11.80;99.90
8709;DHT22;4391;48.678;9.280;2022-12-29T12:22:05;11.70;99.90
8709;DHT22;4391;48.678;9.280;2022-12-29T12:24:39;11.70;19.00
8709;DHT22;4391;48.678;9.280;2022-12-29T12:27:12;11.70;99.90
8709;DHT22;4391;48.678;9.280;2022-12-29T12:29:46;11.80;1.00
8709;DHT22;4391;48.678;9.280;2022-12-29T12:32:20;11.80;1.00
8709;DHT22;4391;48.678;9.280;2022-12-29T12:34:49;11.80;99.90
8709;DHT22;4391;48.678;9.280;2022-12-29T12:37:49;11.80;99.90
8709;DHT22;4391;48.678;9.280;2022-12-29T12:47:00;12.30;1.00
8709;DHT22;4391;48.678;9.280;2022-12-29T12:49:47;12.40;99.90
8709;DHT22;4391;48.678;9.280;2022-12-29T12:52:29;12.10;1.00
8709;DHT22;4391;48.678;9.280;2022-12-29T12:55:26;11.80;99.90
8709;DHT22;4391;48.678;9.280;2022-12-29T12:57:58;11.70;99.90
8709;DHT22;4391;48.678;9.280;2022-12-29T13:00:32;12.20;92.90
8709;DHT22;4391;48.678;9.280;2022-12-29T13:03:08;12.50;99.90
8709;DHT22;4391;48.678;9.280;2022-12-29T13:05:50;12.40;9.90
8709;DHT22;4391;48.678;9.280;2022-12-29T13:08:41;12.30;1.00
8709;DHT22;4391;48.678;9.280;2022-12-29T13:11:23;12.00;1.00
8709;DHT22;4391;48.678;9.280;2022-12-29T13:14:05;11.90;99.90
8709;DHT22;4391;48.678;9.280;2022-12-29T13:16:41;12.00;99.90
8709;DHT22;4391;48.678;9.280;2022-12-29T13:19:13;12.40;1.00
8709;DHT22;4391;48.678;9.280;2022-12-29T13:21:55;12.90;99.90
8709;DHT22;4391;48.678;9.280;2022-12-29T13:24:27;13.20;99.90
8709;DHT22;4391;48.678;9.280;2022-12-29T13:26:59;13.20;99.90
8709;DHT22;4391;48.678;9.280;2022-12-29T13:29:32;12.90;99.90
8709;DHT22;4391;48.678;9.280;2022-12-29T13:32:12;12.70;99.90
8709;DHT22;4391;48.678;9.280;2022-12-29T13:34:48;12.40;99.90
8709;DHT22;4391;48.678;9.280;2022-12-29T13:37:17;12.30;99.90
8709;DHT22;4391;48.678;9.280;2022-12-29T13:39:49;12.00;46.10
8709;DHT22;4391;48.678;9.280;2022-12-29T13:42:19;11.80;99.90
8709;DHT22;4391;48.678;9.280;2022-12-29T13:44:53;11.70;99.90
8709;DHT22;4391;48.678;9.280;2022-12-29T13:47:27;11.60;1.00
8709;DHT22;4391;48.678;9.280;2022-12-29T13:49:56;11.50;1.00
8709;DHT22;4391;48.678;9.280;2022-12-29T13:52:28;11.50;1.00
8709;DHT22;4391;48.678;9.280;2022-12-29T13:55:05;11.60;1.00
8709;DHT22;4391;48.678;9.280;2022-12-29T13:57:40;11.80;1.00
8709;DHT22;4391;48.678;9.280;2022-12-29T14:00:14;11.70;99.90
8709;DHT22;4391;48.678;9.280;2022-12-29T14:02:57;11.80;99.90
8709;DHT22;4391;48.678;9.280;2022-12-29T14:05:31;11.80;99.90
8709;DHT22;4391;48.678;9.280;2022-12-29T14:08:00;11.90;99.90
8709;DHT22;4391;48.678;9.280;2022-12-29T14:10:29;11.80;99.90
8709;DHT22;4391;48.678;9.280;2022-12-29T14:13:12;11.80;99.90
8709;DHT22;4391;48.678;9.280;2022-12-29T14:15:41;11.90;99.90
8709;DHT22;4391;48.678;9.280;2022-12-29T14:18:16;11.90;99.90
8709;DHT22;4391;48.678;9.280;2022-12-29T14:20:52;11.80;99.90
8709;DHT22;4391;48.678;9.280;2022-12-29T14:23:29;11.80;99.90
8709;DHT22;4391;48.678;9.280;2022-12-29T14:26:11;11.70;99.90
8709;DHT22;4391;48.678;9.280;2022-12-29T14:28:40;11.60;99.90
8709;DHT22;4391;48.678;9.280;2022-12-29T14:31:35;11.50;99.90
8709;DHT22;4391;48.678;9.280;2022-12-29T14:34:30;11.50;99.90
8709;DHT22;4391;48.678;9.280;2022-12-29T14:36:58;11.40;99.90
8709;DHT22;4391;48.678;9.280;2022-12-29T14:39:37;11.40;99.90
8709;DHT22;4391;48.678;9.280;2022-12-29T14:42:06;11.30;99.90
8709;DHT22;4391;48.678;9.280;2022-12-29T14:44:46;11.30;99.90
8709;DHT22;4391;48.678;9.280;2022-12-29T14:47:19;11.20;99.90
8709;DHT22;4391;48.678;9.280;2022-12-29T14:49:47;11.20;99.90
8709;DHT22;4391;48.678;9.280;2022-12-29T14:52:17;11.10;99.90
8709;DHT22;4391;48.678;9.280;2022-12-29T14:54:53;11.00;1.00
8709;DHT22;4391;48.678;9.280;2022-12-29T14:57:27;11.00;1.00
8709;DHT22;4391;48.678;9.280;2022-12-29T15:00:00;10.90;1.00
8709;DHT22;4391;48.678;9.280;2022-12-29T15:02:34;10.90;99.90
8709;DHT22;4391;48.678;9.280;2022-12-29T15:05:04;10.80;1.00
8709;DHT22;4391;48.678;9.280;2022-12-29T15:07:31;10.90;99.90
8709;DHT22;4391;48.678;9.280;2022-12-29T15:10:05;10.90;99.90
8709;DHT22;4391;48.678;9.280;2022-12-29T15:12:38;10.80;1.00
8709;DHT22;4391;48.678;9.280;2022-12-29T15:15:20;10.80;99.90
8709;DHT22;4391;48.678;9.280;2022-12-29T15:17:47;10.80;99.90
8709;DHT22;4391;48.678;9.280;2022-12-29T15:20:21;10.80;99.90
8709;DHT22;4391;48.678;9.280;2022-12-29T15:22:52;10.80;99.90
8709;DHT22;4391;48.678;9.280;2022-12-29T15:25:19;10.80;99.90
8709;DHT22;4391;48.678;9.280;2022-12-29T15:27:49;10.80;99.90
8709;DHT22;4391;48.678;9.280;2022-12-29T15:30:19;10.70;99.90
8709;DHT22;4391;48.678;9.280;2022-12-29T15:32:47;10.70;99.90
8709;DHT22;4391;48.678;9.280;2022-12-29T15:35:26;10.70;99.90
8709;DHT22;4391;48.678;9.280;2022-12-29T15:37:54;10.80;99.90
8709;DHT22;4391;48.678;9.280;2022-12-29T15:40:25;10.80;99.90
8709;DHT22;4391;48.678;9.280;2022-12-29T15:43:17;10.80;99.90
8709;DHT22;4391;48.678;9.280;2022-12-29T15:45:48;10.90;39.20
8709;DHT22;4391;48.678;9.280;2022-12-29T15:48:18;10.90;1.00
8709;DHT22;4391;48.678;9.280;2022-12-29T15:50:45;11.00;99.90
8709;DHT22;4391;48.678;9.280;2022-12-29T15:53:18;11.10;99.90
8709;DHT22;4391;48.678;9.280;2022-12-29T15:55:46;11.10;99.90
8709;DHT22;4391;48.678;9.280;2022-12-29T15:58:20;11.10;99.90
8709;DHT22;4391;48.678;9.280;2022-12-29T16:00:50;11.10;98.70
8709;DHT22;4391;48.678;9.280;2022-12-29T16:03:19;11.10;99.90
8709;DHT22;4391;48.678;9.280;2022-12-29T16:05:52;11.10;4.00
8709;DHT22;4391;48.678;9.280;2022-12-29T16:08:29;11.10;99.90
8709;DHT22;4391;48.678;9.280;2022-12-29T16:11:00;11.00;1.00
8709;DHT22;4391;48.678;9.280;2022-12-29T16:13:31;11.10;99.90
8709;DHT22;4391;48.678;9.280;2022-12-29T16:16:08;11.00;1.00
8709;DHT22;4391;48.678;9.280;2022-12-29T16:18:38;11.10;99.90
8709;DHT22;4391;48.678;9.280;2022-12-29T16:21:15;11.20;1.00
8709;DHT22;4391;48.678;9.280;2022-12-29T16:23:47;11.20;1.00
8709;DHT22;4391;48.678;9.280;2022-12-29T16:26:16;11.10;98.10
8709;DHT22;4391;48.678;9.280;2022-12-29T16:28:47;11.10;1.00
8709;DHT22;4391;48.678;9.280;2022-12-29T16:31:22;11.10;1.00
8709;DHT22;4391;48.678;9.280;2022-12-29T16:33:51;11.00;1.00
8709;DHT22;4391;48.678;9.280;2022-12-29T16:36:23;10.90;99.90
8709;DHT22;4391;48.678;9.280;2022-12-29T16:38:50;10.70;99.90
8709;DHT22;4391;48.678;9.280;2022-12-29T16:41:28;10.50;1.00
8709;DHT22;4391;48.678;9.280;2022-12-29T16:44:11;10.40;1.00
8709;DHT22;4391;48.678;9.280;2022-12-29T16:46:44;10.30;1.00
8709;DHT22;4391;48.678;9.280;2022-12-29T16:49:15;10.20;1.00
8709;DHT22;4391;48.678;9.280;2022-12-29T16:51:43;10.10;1.00
8709;DHT22;4391;48.678;9.280;2022-12-29T16:54:18;9.90;1.00
8709;DHT22;4391;48.678;9.280;2022-12-29T16:56:47;9.90;1.00
8709;DHT22;4391;48.678;9.280;2022-12-29T16:59:27;9.80;1.00
8709;DHT22;4391;48.678;9.280;2022-12-29T17:01:58;9.80;1.00
8709;DHT22;4391;48.678;9.280;2022-12-29T17:04:26;9.80;4.30